Time;durP1;ratioP1;P1;durP2;ratioP2;P2;SDS_P1;SDS_P2;PMS_P1;PMS_P2;Temp;Humidity;BMP_temperature;BMP_pressure;BME280_temperature;BME280_humidity;BME280_pressure;Samples;Min_cycle;Max_cycle;Signal;HPM_P1;HPM_P2
2022/05/24 00:00:44;;;;;;;60.95;58.00;;;14.30;99.90;;;;;;5033448;28;20268;-73
2022/05/24 00:03:10;;;;;;;56.63;54.03;;;14.20;99.90;;;;;;5048326;28;20638;-75
2022/05/24 00:05:37;;;;;;;64.18;61.20;;;14.30;99.90;;;;;;5048709;28;20221;-73
2022/05/24 00:08:05;;;;;;;63.28;60.67;;;14.30;99.90;;;;;;5039032;28;20204;-73
2022/05/24 00:10:32;;;;;;;60.88;58.33;;;14.20;99.90;;;;;;5036158;28;20631;-74
2022/05/24 00:12:58;;;;;;;57.33;54.70;;;14.20;99.90;;;;;;5044271;28;20189;-73
2022/05/24 00:15:32;;;;;;;55.25;52.78;;;14.20;99.90;;;;;;5043514;28;20237;-73
2022/05/24 00:18:21;;;;;;;60.75;58.25;;;14.20;99.90;;;;;;5048235;28;20709;-73
2022/05/24 00:20:56;;;;;;;56.80;54.33;;;14.20;99.90;;;;;;5036466;28;20178;-73
2022/05/24 00:23:24;;;;;;;60.75;58.42;;;14.30;99.90;;;;;;5044576;28;20205;-73
2022/05/24 00:25:52;;;;;;;76.82;73.18;;;14.40;99.90;;;;;;5048337;28;20217;-73
2022/05/24 00:28:19;;;;;;;74.63;71.28;;;14.30;99.90;;;;;;5039883;28;20182;-73
2022/05/24 00:30:47;;;;;;;65.93;61.53;;;14.30;99.90;;;;;;5039018;28;20194;-73
2022/05/24 00:33:14;;;;;;;60.47;57.47;;;14.30;99.90;;;;;;5042701;28;20190;-72
2022/05/24 00:35:40;;;;;;;50.92;48.72;;;14.20;99.90;;;;;;5037020;28;20505;-76
2022/05/24 00:38:09;;;;;;;52.53;50.10;;;14.30;99.90;;;;;;5036648;28;20178;-73
2022/05/24 00:40:59;;;;;;;53.15;50.90;;;14.20;99.90;;;;;;5035979;28;20175;-73
2022/05/24 00:43:32;;;;;;;54.55;52.13;;;14.10;99.90;;;;;;5068792;28;20207;-74
2022/05/24 00:46:13;;;;;;;51.88;49.58;;;14.10;99.90;;;;;;5035767;28;20182;-73
2022/05/24 00:48:55;;;;;;;57.58;55.05;;;14.20;99.90;;;;;;5036172;28;20183;-73
2022/05/24 00:51:39;;;;;;;56.33;53.67;;;14.10;99.90;;;;;;5035483;28;20194;-73
2022/05/24 00:54:05;;;;;;;54.85;52.45;;;14.10;99.90;;;;;;5040209;28;20636;-73
2022/05/24 00:56:58;;;;;;;55.45;52.92;;;14.00;99.90;;;;;;5035618;28;20221;-72
2022/05/24 00:59:48;;;;;;;54.38;51.85;;;13.90;99.90;;;;;;5036645;28;20233;-73
2022/05/24 01:02:14;;;;;;;54.25;52.30;;;13.90;99.90;;;;;;5043893;28;20643;-75
2022/05/24 01:04:39;;;;;;;55.85;53.22;;;13.80;99.90;;;;;;5052504;28;20280;-73
2022/05/24 01:07:05;;;;;;;57.38;54.65;;;13.80;99.90;;;;;;5037408;28;20683;-72
2022/05/24 01:09:39;;;;;;;55.92;53.22;;;13.90;99.90;;;;;;5036239;28;20206;-72
2022/05/24 01:12:18;;;;;;;58.72;55.17;;;13.90;99.90;;;;;;5036421;28;20178;-73
2022/05/24 01:14:44;;;;;;;59.00;56.55;;;13.90;99.90;;;;;;5036605;28;20182;-73
2022/05/24 01:17:10;;;;;;;59.50;56.97;;;13.90;99.90;;;;;;5036523;28;20282;-73
2022/05/24 01:19:43;;;;;;;54.30;52.30;;;13.90;99.90;;;;;;5049641;28;20268;-72
2022/05/24 01:22:18;;;;;;;61.42;58.22;;;13.90;99.90;;;;;;5038234;28;20236;-72
2022/05/24 01:24:52;;;;;;;56.53;54.38;;;13.80;99.90;;;;;;5036077;28;20651;-73
2022/05/24 01:27:17;;;;;;;61.42;58.47;;;13.90;99.90;;;;;;5036385;28;20821;-73
2022/05/24 01:29:43;;;;;;;56.40;54.30;;;13.80;99.90;;;;;;5020428;28;20194;-73
2022/05/24 01:37:37;;;;;;;66.47;63.75;;;14.00;99.90;;;;;;5043636;28;20209;-73
2022/05/24 01:40:04;;;;;;;70.15;66.88;;;14.10;99.90;;;;;;5068182;28;20210;-72
2022/05/24 01:42:30;;;;;;;60.50;57.92;;;14.30;99.90;;;;;;5035491;28;20202;-72
2022/05/24 01:45:17;;;;;;;61.00;58.47;;;14.20;99.90;;;;;;5051119;28;20186;-73
2022/05/24 01:47:44;;;;;;;58.50;55.85;;;14.10;99.90;;;;;;5038514;28;20724;-72
2022/05/24 01:50:17;;;;;;;55.15;52.60;;;14.00;99.90;;;;;;5042899;28;20675;-72
2022/05/24 01:52:52;;;;;;;57.22;54.58;;;13.80;99.90;;;;;;5045086;28;20188;-73
2022/05/24 01:55:40;;;;;;;55.40;53.13;;;13.70;99.90;;;;;;5053278;28;20178;-73
2022/05/24 01:58:10;;;;;;;56.05;53.65;;;13.60;99.90;;;;;;5049167;28;20183;-73
2022/05/24 02:00:36;;;;;;;51.72;49.67;;;13.70;99.90;;;;;;5043159;28;20193;-73
2022/05/24 02:03:02;;;;;;;51.28;49.03;;;13.60;99.90;;;;;;5034835;28;20306;-73
2022/05/24 02:05:31;;;;;;;52.65;50.33;;;13.50;99.90;;;;;;5067349;28;20187;-73
2022/05/24 02:07:57;;;;;;;56.83;54.33;;;13.60;99.90;;;;;;5035402;28;20182;-73
2022/05/24 02:10:24;;;;;;;55.28;52.85;;;13.50;99.90;;;;;;5040536;28;20296;-73
2022/05/24 02:12:53;;;;;;;53.92;51.45;;;13.60;99.90;;;;;;5049486;28;20657;-73
2022/05/24 02:15:24;;;;;;;57.47;54.85;;;13.50;99.90;;;;;;5035442;28;20246;-73
2022/05/24 02:18:10;;;;;;;52.85;50.53;;;13.50;99.90;;;;;;5050143;28;20182;-73
2022/05/24 02:20:39;;;;;;;55.83;53.13;;;13.60;99.90;;;;;;5034840;28;20540;-72
2022/05/24 02:23:05;;;;;;;68.18;65.07;;;13.60;99.90;;;;;;5049855;28;20195;-73
2022/05/24 02:25:42;;;;;;;59.55;56.97;;;13.70;99.90;;;;;;5033718;28;20198;-72
2022/05/24 02:28:12;;;;;;;56.78;54.25;;;13.70;99.90;;;;;;5034740;28;20186;-73
2022/05/24 02:30:48;;;;;;;117.32;112.15;;;13.80;99.90;;;;;;5040149;28;20231;-73
2022/05/24 02:33:14;;;;;;;60.75;58.40;;;13.80;99.90;;;;;;5066782;28;20197;-75
2022/05/24 02:35:40;;;;;;;61.55;59.00;;;14.00;99.90;;;;;;5034007;28;20571;-73
2022/05/24 02:38:06;;;;;;;61.10;58.13;;;14.10;99.90;;;;;;5050491;28;20185;-74
2022/05/24 02:43:16;;;;;;;60.92;58.42;;;14.00;99.90;;;;;;5051898;28;20578;-73
2022/05/24 02:45:41;;;;;;;68.47;65.20;;;14.10;99.90;;;;;;5033558;28;20187;-72
2022/05/24 02:48:08;;;;;;;73.20;70.50;;;14.00;99.90;;;;;;5034450;28;20601;-73
2022/05/24 02:50:33;;;;;;;60.13;57.92;;;13.90;99.90;;;;;;5033543;28;20201;-72
2022/05/24 02:52:59;;;;;;;59.97;57.30;;;13.80;99.90;;;;;;5033979;28;20644;-72
2022/05/24 02:55:25;;;;;;;68.97;66.32;;;13.80;99.90;;;;;;5033287;28;20258;-73
2022/05/24 02:57:50;;;;;;;71.15;68.00;;;13.70;99.90;;;;;;5033611;28;20202;-73
2022/05/24 03:00:24;;;;;;;64.45;61.60;;;13.70;99.90;;;;;;5033068;28;20198;-72
2022/05/24 03:02:51;;;;;;;58.05;55.63;;;13.70;99.90;;;;;;5034660;28;20213;-73
2022/05/24 03:05:17;;;;;;;60.15;57.67;;;13.80;99.90;;;;;;5034211;28;20200;-72
2022/05/24 03:10:29;;;;;;;59.35;56.97;;;13.80;99.90;;;;;;5034221;28;20293;-73
2022/05/24 03:15:40;;;;;;;61.95;59.13;;;13.80;99.90;;;;;;5034396;28;20197;-72
2022/05/24 03:18:06;;;;;;;60.97;58.78;;;13.80;99.90;;;;;;5034093;28;20183;-73
2022/05/24 03:20:33;;;;;;;63.30;61.00;;;13.80;99.90;;;;;;5032839;28;20198;-72
2022/05/24 03:22:59;;;;;;;59.22;57.03;;;13.80;99.90;;;;;;5032805;28;20218;-72
2022/05/24 03:25:25;;;;;;;68.30;65.28;;;13.70;99.90;;;;;;5065968;28;20607;-72
2022/05/24 03:27:50;;;;;;;58.95;56.78;;;13.70;99.90;;;;;;5024188;28;20182;-72
2022/05/24 03:30:16;;;;;;;61.97;59.05;;;13.60;99.90;;;;;;5036381;28;20194;-72
2022/05/24 03:32:42;;;;;;;57.40;55.08;;;13.70;99.90;;;;;;5065622;28;20187;-72
2022/05/24 03:35:12;;;;;;;58.22;55.92;;;13.70;99.90;;;;;;5061144;28;20190;-73
2022/05/24 03:37:38;;;;;;;69.53;67.05;;;13.70;99.90;;;;;;5060025;28;20644;-72
2022/05/24 03:40:05;;;;;;;63.65;61.35;;;13.70;99.90;;;;;;5016092;28;20187;-74
2022/05/24 03:42:31;;;;;;;77.15;74.18;;;13.70;99.90;;;;;;5032258;28;20297;-76
2022/05/24 03:44:57;;;;;;;70.50;67.75;;;13.70;99.90;;;;;;5047235;28;20282;-72
2022/05/24 03:47:22;;;;;;;58.33;56.22;;;13.70;99.90;;;;;;5048996;28;20206;-72
2022/05/24 03:49:48;;;;;;;68.82;65.88;;;13.70;99.90;;;;;;5045563;28;20548;-72
2022/05/24 03:52:14;;;;;;;64.28;61.85;;;13.60;99.90;;;;;;5031118;28;20237;-72
2022/05/24 03:54:39;;;;;;;67.35;64.20;;;13.50;99.90;;;;;;5034744;28;20191;-72
2022/05/24 03:59:50;;;;;;;59.42;57.00;;;13.50;99.90;;;;;;5032347;28;20427;-72
2022/05/24 04:02:16;;;;;;;63.03;60.47;;;13.60;99.90;;;;;;5065620;28;20202;-72
2022/05/24 04:04:41;;;;;;;62.72;59.92;;;13.50;99.90;;;;;;5026506;28;20557;-73
2022/05/24 04:07:07;;;;;;;55.05;52.72;;;13.60;99.90;;;;;;5032063;28;20218;-72
2022/05/24 04:09:34;;;;;;;60.88;58.25;;;13.60;99.90;;;;;;5033036;28;20205;-73
2022/05/24 04:12:00;;;;;;;63.13;59.78;;;13.60;99.90;;;;;;5044279;28;20202;-72
2022/05/24 04:14:31;;;;;;;58.28;55.60;;;13.40;99.90;;;;;;5033533;28;20186;-72
2022/05/24 04:16:57;;;;;;;54.25;52.30;;;13.40;99.90;;;;;;5037072;28;20182;-72
2022/05/24 04:19:23;;;;;;;54.78;52.25;;;13.50;99.90;;;;;;5050475;28;20185;-72
2022/05/24 04:21:49;;;;;;;57.03;54.83;;;13.40;99.90;;;;;;5033534;28;20232;-74
2022/05/24 04:24:14;;;;;;;61.08;57.90;;;13.40;99.90;;;;;;5033312;28;20214;-74
2022/05/24 04:26:40;;;;;;;62.67;60.08;;;13.40;99.90;;;;;;5044321;28;20199;-73
2022/05/24 04:29:06;;;;;;;58.30;55.72;;;13.40;99.90;;;;;;5048567;28;20179;-72
2022/05/24 04:31:32;;;;;;;57.03;54.45;;;13.30;99.90;;;;;;5031635;28;20205;-72
2022/05/24 04:33:58;;;;;;;57.65;55.05;;;13.30;99.90;;;;;;5032717;28;20631;-72
2022/05/24 04:36:23;;;;;;;63.53;60.50;;;13.30;99.90;;;;;;5050780;28;20331;-72
2022/05/24 04:38:49;;;;;;;61.78;59.00;;;13.30;99.90;;;;;;5032756;28;20181;-72
2022/05/24 04:43:58;;;;;;;59.58;57.00;;;13.20;99.90;;;;;;5041616;28;20267;-72
2022/05/24 04:46:24;;;;;;;65.28;62.33;;;13.20;99.90;;;;;;5034430;28;20289;-72
2022/05/24 04:48:50;;;;;;;63.45;60.63;;;13.20;99.90;;;;;;5064883;28;20182;-72
2022/05/24 04:51:16;;;;;;;62.45;59.28;;;13.20;99.90;;;;;;5031467;28;20179;-72
2022/05/24 04:53:42;;;;;;;178.95;168.90;;;13.20;99.90;;;;;;5031839;28;20187;-75
2022/05/24 04:56:07;;;;;;;79.97;76.90;;;13.30;99.90;;;;;;5048873;28;20183;-72
2022/05/24 04:58:34;;;;;;;67.30;64.63;;;13.30;99.90;;;;;;5047976;28;20186;-72
2022/05/24 05:00:59;;;;;;;66.45;63.70;;;13.30;99.90;;;;;;5031256;28;20175;-72
2022/05/24 05:03:25;;;;;;;96.45;92.50;;;13.50;99.90;;;;;;5037436;28;20229;-71
2022/05/24 05:05:52;;;;;;;70.35;67.85;;;13.50;99.90;;;;;;5036250;28;20596;-71
2022/05/24 05:08:18;;;;;;;73.55;70.28;;;13.50;99.90;;;;;;5054622;28;20539;-71
2022/05/24 05:10:44;;;;;;;78.30;75.10;;;13.60;99.90;;;;;;5036239;28;20187;-71
2022/05/24 05:13:10;;;;;;;76.00;72.70;;;13.60;99.90;;;;;;5047499;28;20249;-72
2022/05/24 05:15:37;;;;;;;79.45;76.40;;;13.70;99.90;;;;;;5036214;28;20186;-71
2022/05/24 05:18:11;;;;;;;92.13;88.32;;;13.80;99.90;;;;;;5034887;28;20187;-71
2022/05/24 05:20:39;;;;;;;80.10;76.95;;;14.00;99.90;;;;;;5036522;28;20249;-71
2022/05/24 05:23:13;;;;;;;78.47;75.07;;;14.10;99.90;;;;;;5036134;28;20678;-71
2022/05/24 05:25:41;;;;;;;97.90;94.07;;;14.20;99.90;;;;;;5035939;28;20520;-70
2022/05/24 05:28:07;;;;;;;94.35;90.20;;;14.20;99.90;;;;;;5034707;28;20186;-71
2022/05/24 05:33:18;;;;;;;66.38;63.33;;;14.30;99.90;;;;;;5036532;28;20268;-70
2022/05/24 05:35:45;;;;;;;72.15;69.28;;;14.40;99.90;;;;;;5039606;28;20632;-70
2022/05/24 05:38:11;;;;;;;78.95;75.80;;;14.50;99.90;;;;;;5046606;28;20249;-70
2022/05/24 05:40:37;;;;;;;87.65;83.97;;;14.50;99.90;;;;;;5034555;28;20183;-71
2022/05/24 05:43:03;;;;;;;72.93;70.03;;;14.60;99.90;;;;;;5034577;28;20233;-70
2022/05/24 05:45:29;;;;;;;81.93;78.75;;;14.70;99.90;;;;;;5048634;28;20186;-71
2022/05/24 05:47:55;;;;;;;75.97;72.43;;;15.00;99.90;;;;;;5042214;28;20213;-70
2022/05/24 05:50:22;;;;;;;72.32;69.65;;;14.90;99.90;;;;;;5035941;28;20190;-70
2022/05/24 05:52:48;;;;;;;77.20;74.18;;;14.80;99.90;;;;;;5035568;28;20289;-70
2022/05/24 05:55:13;;;;;;;82.25;79.03;;;15.00;99.90;;;;;;5050842;28;20654;-70
2022/05/24 05:57:40;;;;;;;79.60;76.63;;;15.20;99.90;;;;;;5051234;28;20183;-70
2022/05/24 06:00:08;;;;;;;79.15;75.82;;;15.20;99.90;;;;;;5035677;28;20182;-74
2022/05/24 06:02:37;;;;;;;112.75;108.68;;;15.30;99.90;;;;;;5043649;28;20214;-70
2022/05/24 06:05:03;;;;;;;101.20;97.32;;;15.50;99.90;;;;;;5035139;28;20190;-70
2022/05/24 06:07:30;;;;;;;98.60;94.60;;;15.50;99.90;;;;;;5067214;28;20178;-70
2022/05/24 06:09:55;;;;;;;96.03;92.38;;;15.70;99.90;;;;;;5034465;28;20185;-70
2022/05/24 06:12:21;;;;;;;110.20;106.03;;;16.00;99.90;;;;;;5035566;28;20273;-69
2022/05/24 06:14:47;;;;;;;104.95;101.20;;;16.30;99.90;;;;;;5017909;28;20194;-69
2022/05/24 06:17:12;;;;;;;151.38;145.55;;;16.50;99.90;;;;;;5035032;28;20185;-71
2022/05/24 06:19:38;;;;;;;146.65;141.25;;;16.70;99.90;;;;;;5035010;28;20268;-71
2022/05/24 06:22:05;;;;;;;187.00;180.13;;;16.60;99.90;;;;;;5035054;28;20194;-72
2022/05/24 06:24:31;;;;;;;202.88;195.38;;;16.50;99.90;;;;;;5033893;28;20316;-71
2022/05/24 06:26:56;;;;;;;235.63;226.85;;;16.40;99.90;;;;;;5033842;28;20668;-71
2022/05/24 06:29:23;;;;;;;225.10;216.65;;;16.20;99.90;;;;;;5067381;28;20204;-71
2022/05/24 06:31:49;;;;;;;280.92;270.50;;;16.00;99.90;;;;;;5036241;28;20193;-71
2022/05/24 06:34:14;;;;;;;248.95;239.70;;;16.20;99.90;;;;;;5054419;28;20190;-74
2022/05/24 06:36:40;;;;;;;241.45;232.63;;;16.30;99.90;;;;;;5033822;28;20186;-69
2022/05/24 06:39:06;;;;;;;251.05;241.77;;;16.30;99.90;;;;;;5045370;28;20194;-70
2022/05/24 06:41:32;;;;;;;270.08;260.23;;;16.20;99.90;;;;;;5045761;28;20265;-67
2022/05/24 06:43:57;;;;;;;280.23;269.92;;;16.30;99.90;;;;;;5034557;28;20203;-71
2022/05/24 06:46:23;;;;;;;328.67;315.67;;;16.30;99.90;;;;;;5033683;28;20214;-72
2022/05/24 06:48:50;;;;;;;265.35;255.48;;;16.30;99.90;;;;;;5036339;28;20178;-71
2022/05/24 06:51:21;;;;;;;272.92;262.52;;;16.30;99.90;;;;;;5050700;28;20262;-72
2022/05/24 06:53:48;;;;;;;309.90;298.40;;;16.60;99.90;;;;;;5034871;28;20186;-73
2022/05/24 06:56:14;;;;;;;330.10;317.48;;;16.80;99.90;;;;;;5032889;28;20651;-72
2022/05/24 06:58:40;;;;;;;395.30;380.17;;;17.00;99.90;;;;;;5034355;28;20197;-67
2022/05/24 07:03:53;;;;;;;441.38;423.83;;;17.30;99.90;;;;;;5037849;28;20545;-67
2022/05/24 07:06:19;;;;;;;423.55;407.10;;;17.20;99.90;;;;;;5040562;28;20191;-67
2022/05/24 07:08:49;;;;;;;425.85;409.67;;;16.90;99.90;;;;;;5043257;28;20207;-67
2022/05/24 07:11:17;;;;;;;428.50;411.75;;;16.90;99.90;;;;;;5066270;28;20174;-66
2022/05/24 07:13:43;;;;;;;444.65;427.25;;;16.90;99.90;;;;;;5032642;28;20182;-66
2022/05/24 07:16:09;;;;;;;461.25;442.98;;;17.00;99.90;;;;;;5035231;28;20196;-67
2022/05/24 07:18:36;;;;;;;455.85;438.05;;;17.10;99.90;;;;;;5033466;28;20687;-68
2022/05/24 07:21:04;;;;;;;485.02;465.55;;;17.20;99.90;;;;;;5041056;28;20265;-67
2022/05/24 07:23:31;;;;;;;479.13;459.90;;;17.30;99.90;;;;;;5050032;28;20267;-67
2022/05/24 07:26:09;;;;;;;474.73;455.60;;;17.40;99.90;;;;;;5032186;28;20664;-69
2022/05/24 07:28:36;;;;;;;499.25;478.70;;;17.20;99.90;;;;;;5037169;28;20588;-67
2022/05/24 07:31:02;;;;;;;482.02;462.67;;;17.00;99.90;;;;;;5043840;28;20193;-68
2022/05/24 07:33:28;;;;;;;487.92;468.40;;;16.80;99.90;;;;;;5048179;28;20194;-68
2022/05/24 07:35:54;;;;;;;483.23;463.25;;;16.80;99.90;;;;;;5035141;28;20552;-67
2022/05/24 07:38:19;;;;;;;476.25;457.23;;;16.70;99.90;;;;;;5047806;28;20555;-66
2022/05/24 07:46:15;;;;;;;618.97;590.65;;;19.60;99.90;;;;;;5043742;28;20585;-66
2022/05/24 07:48:41;;;;;;;697.58;662.55;;;21.30;99.90;;;;;;5044770;28;20254;-66
2022/05/24 07:51:06;;;;;;;740.35;701.75;;;22.20;99.90;;;;;;5032281;28;20186;-67
2022/05/24 07:53:33;;;;;;;792.70;748.42;;;22.10;99.90;;;;;;5033016;28;20267;-67
2022/05/24 07:55:59;;;;;;;785.55;742.53;;;22.60;99.90;;;;;;5033027;28;20214;-67
2022/05/24 07:58:26;;;;;;;814.15;768.05;;;22.60;99.90;;;;;;5032511;28;20600;-67
2022/05/24 08:00:54;;;;;;;822.50;775.33;;;22.40;99.90;;;;;;5033795;28;20186;-67
2022/05/24 08:03:20;;;;;;;857.40;806.63;;;22.00;99.90;;;;;;5033250;28;20602;-67
2022/05/24 08:05:46;;;;;;;871.50;818.85;;;21.30;99.90;;;;;;5041428;28;20181;-67
2022/05/24 08:08:14;;;;;;;859.13;807.20;;;20.60;99.90;;;;;;5047265;28;20206;-67
2022/05/24 08:10:39;;;;;;;886.00;831.40;;;20.60;99.90;;;;;;5020628;28;20346;-67
2022/05/24 08:13:08;;;;;;;861.08;809.45;;;21.00;99.90;;;;;;5046644;28;20276;-67
2022/05/24 08:15:34;;;;;;;861.30;809.53;;;20.60;99.90;;;;;;5034452;28;20183;-67
2022/05/24 08:18:00;;;;;;;847.00;796.47;;;21.10;99.90;;;;;;5031871;28;20240;-67
2022/05/24 08:20:26;;;;;;;885.58;831.10;;;22.50;99.90;;;;;;5039183;28;20186;-67
2022/05/24 08:22:52;;;;;;;862.97;811.25;;;23.50;99.90;;;;;;5041240;28;20251;-67
2022/05/24 08:25:18;;;;;;;926.72;867.97;;;24.60;99.90;;;;;;5031881;28;20777;-67
2022/05/24 08:27:45;;;;;;;996.20;930.72;;;24.80;99.90;;;;;;5033381;28;20179;-68
2022/05/24 08:30:14;;;;;;;1013.03;944.83;;;23.60;99.90;;;;;;5042139;28;20190;-67
2022/05/24 08:32:40;;;;;;;978.70;914.90;;;22.60;99.90;;;;;;5046526;28;20189;-67
2022/05/24 08:35:08;;;;;;;977.28;913.67;;;23.20;99.90;;;;;;5035351;28;20182;-67
2022/05/24 08:37:33;;;;;;;983.33;918.67;;;24.10;99.90;;;;;;5051443;28;20268;-71
2022/05/24 08:39:59;;;;;;;1023.75;954.03;;;24.50;99.90;;;;;;5033590;28;20269;-67
2022/05/24 08:42:47;;;;;;;1009.88;940.70;;;24.60;99.90;;;;;;5036798;28;20658;-68
2022/05/24 08:48:22;;;;;;;1999.90;999.90;;;26.00;99.90;;;;;;5036990;28;20186;-67
2022/05/24 08:50:51;;;;;;;1999.90;999.90;;;26.30;99.90;;;;;;5036977;28;20273;-68
2022/05/24 08:53:39;;;;;;;1999.90;999.90;;;25.70;99.90;;;;;;5036444;28;20655;-68
2022/05/24 08:56:07;;;;;;;1999.90;999.90;;;26.20;99.90;;;;;;5048028;28;20266;-67
2022/05/24 08:58:41;;;;;;;1999.90;999.90;;;26.00;99.90;;;;;;5048918;28;20206;-67
2022/05/24 09:01:16;;;;;;;1999.90;999.90;;;26.10;99.90;;;;;;5036807;28;20184;-68
2022/05/24 09:03:41;;;;;;;1999.90;999.90;;;26.80;99.90;;;;;;5055055;28;20228;-67
2022/05/24 09:06:17;;;;;;;1999.90;999.90;;;27.30;99.90;;;;;;5039117;28;20296;-68
2022/05/24 09:09:10;;;;;;;1999.90;999.90;;;26.60;99.90;;;;;;5082695;28;20246;-68
2022/05/24 09:12:13;;;;;;;1999.90;999.90;;;26.50;99.90;;;;;;5039301;28;20177;-68
2022/05/24 09:15:01;;;;;;;1999.90;999.90;;;27.10;99.90;;;;;;5045983;28;20174;-68
2022/05/24 09:18:00;;;;;;;1999.90;999.90;;;27.70;99.90;;;;;;5035914;28;20692;-68
2022/05/24 09:20:28;;;;;;;1999.90;999.90;;;27.40;99.90;;;;;;5036221;28;20546;-68
2022/05/24 09:23:03;;;;;;;1999.90;999.90;;;26.00;99.90;;;;;;5036120;28;20205;-68
2022/05/24 09:25:29;;;;;;;1999.90;999.90;;;25.80;99.90;;;;;;5036311;28;20188;-70
2022/05/24 09:27:55;;;;;;;1999.90;999.90;;;24.60;99.90;;;;;;5038278;28;20261;-67
2022/05/24 09:30:28;;;;;;;1999.90;999.90;;;23.90;99.90;;;;;;5038826;28;20636;-67
2022/05/24 09:33:24;;;;;;;1999.90;999.90;;;23.60;99.90;;;;;;5036070;28;20187;-67
2022/05/24 09:35:58;;;;;;;1342.63;999.90;;;23.00;99.90;;;;;;5035985;28;20189;-67
2022/05/24 09:38:36;;;;;;;1129.28;999.90;;;22.30;99.90;;;;;;5037142;28;20189;-68
2022/05/24 09:41:22;;;;;;;1130.78;999.90;;;21.90;99.90;;;;;;5034727;28;20190;-68
2022/05/24 09:44:04;;;;;;;1124.88;999.90;;;21.80;99.90;;;;;;5034301;28;20226;-68
2022/05/24 09:46:30;;;;;;;1117.53;999.90;;;21.70;99.90;;;;;;5035732;28;20679;-68
2022/05/24 09:49:25;;;;;;;1111.75;999.90;;;21.90;99.90;;;;;;5043661;28;20190;-68
2022/05/24 09:51:56;;;;;;;1097.32;999.90;;;22.00;99.90;;;;;;5066619;28;20670;-68
2022/05/24 09:54:25;;;;;;;1038.07;966.28;;;21.20;99.90;;;;;;5043808;28;20278;-67
2022/05/24 09:57:03;;;;;;;980.85;917.13;;;20.00;99.90;;;;;;5046960;28;20177;-67
2022/05/24 09:59:29;;;;;;;923.67;865.78;;;19.10;99.90;;;;;;5036668;28;20178;-68
2022/05/24 10:01:55;;;;;;;813.90;766.90;;;18.50;99.90;;;;;;5034230;28;20189;-67
2022/05/24 10:04:35;;;;;;;786.55;743.25;;;18.10;99.90;;;;;;5035728;28;20211;-66
2022/05/24 10:07:19;;;;;;;698.90;663.65;;;17.80;99.90;;;;;;5035530;28;20196;-66
2022/05/24 10:09:54;;;;;;;596.88;569.65;;;17.70;99.90;;;;;;5038683;28;20243;-66
2022/05/24 10:12:34;;;;;;;482.02;462.48;;;18.10;99.90;;;;;;5035380;28;20185;-67
2022/05/24 10:15:17;;;;;;;413.85;397.85;;;18.50;99.90;;;;;;5035486;28;20632;-68
2022/05/24 10:17:51;;;;;;;374.55;360.63;;;19.00;99.90;;;;;;5033855;28;20182;-66
2022/05/24 10:20:42;;;;;;;453.60;435.95;;;19.30;99.90;;;;;;5035439;28;20185;-67
2022/05/24 10:23:27;;;;;;;409.55;393.85;;;19.40;99.90;;;;;;5033779;28;20211;-70
2022/05/24 10:26:16;;;;;;;459.02;440.75;;;19.40;99.90;;;;;;5043725;28;20204;-68
2022/05/24 10:29:09;;;;;;;526.53;504.27;;;19.50;99.90;;;;;;5035233;28;20597;-67
2022/05/24 10:31:55;;;;;;;547.30;523.75;;;19.50;99.90;;;;;;5043495;28;20240;-68
2022/05/24 10:40:34;;;;;;;492.13;472.08;;;19.60;99.90;;;;;;5035018;28;20193;-68
2022/05/24 10:43:18;;;;;;;554.22;528.85;;;19.00;99.90;;;;;;5043982;28;20579;-69
2022/05/24 10:45:51;;;;;;;595.65;569.05;;;18.60;99.90;;;;;;5037604;28;20203;-69
2022/05/24 10:48:38;;;;;;;571.28;546.40;;;18.60;99.90;;;;;;5082087;28;20228;-72
2022/05/24 10:51:48;;;;;;;602.05;575.10;;;18.70;99.90;;;;;;5074888;28;20185;-71
2022/05/24 10:54:22;;;;;;;576.47;550.88;;;18.80;99.90;;;;;;5003748;28;20187;-72
2022/05/24 10:56:58;;;;;;;614.45;586.45;;;18.80;99.90;;;;;;5026894;28;20197;-72
2022/05/24 10:59:39;;;;;;;626.97;598.08;;;18.60;99.90;;;;;;5032592;28;20324;-72
2022/05/24 11:02:38;;;;;;;634.15;605.00;;;18.70;99.90;;;;;;5074031;28;20638;-72
2022/05/24 11:05:29;;;;;;;617.08;589.05;;;18.80;99.90;;;;;;5034248;28;20309;-72
2022/05/24 11:08:36;;;;;;;640.05;610.58;;;19.10;99.90;;;;;;5029927;28;20202;-68
2022/05/24 11:11:33;;;;;;;687.45;654.03;;;19.20;99.90;;;;;;5033413;28;20601;-69
2022/05/24 11:14:20;;;;;;;689.58;655.88;;;19.10;99.90;;;;;;5034741;28;20206;-72
2022/05/24 11:16:48;;;;;;;658.70;627.47;;;18.80;99.90;;;;;;5039231;28;20190;-76
2022/05/24 11:19:25;;;;;;;486.52;466.67;;;18.50;99.90;;;;;;5043313;28;20185;-68
2022/05/24 11:22:10;;;;;;;250.25;241.05;;;17.90;99.90;;;;;;5033618;28;20373;-68
2022/05/24 11:25:00;;;;;;;164.43;158.50;;;17.40;99.90;;;;;;5043861;28;20351;-68
2022/05/24 11:27:38;;;;;;;112.47;108.38;;;17.20;99.90;;;;;;5048936;28;20192;-71
2022/05/24 11:30:27;;;;;;;103.22;99.30;;;17.30;99.90;;;;;;5041619;28;20319;-72
2022/05/24 11:33:03;;;;;;;114.38;110.25;;;17.50;99.90;;;;;;5029611;28;20194;-79
2022/05/24 11:35:35;;;;;;;156.68;150.95;;;17.60;99.90;;;;;;5065653;28;20336;-78
2022/05/24 11:38:32;;;;;;;166.57;160.55;;;17.60;99.90;;;;;;5032282;28;20178;-74
2022/05/24 11:41:10;;;;;;;152.82;147.20;;;17.70;99.90;;;;;;5033665;28;20248;-81
2022/05/24 11:43:36;;;;;;;186.48;179.75;;;17.90;99.90;;;;;;5032930;28;20194;-77
2022/05/24 11:46:34;;;;;;;201.90;194.70;;;18.10;99.90;;;;;;5040174;28;20233;-77
2022/05/24 11:49:04;;;;;;;236.07;227.30;;;18.20;99.90;;;;;;5034048;28;20235;-76
2022/05/24 11:51:49;;;;;;;241.00;232.30;;;18.40;99.90;;;;;;5032519;28;20189;-78
2022/05/24 11:54:23;;;;;;;211.52;204.00;;;18.50;99.90;;;;;;5034044;28;20197;-78
2022/05/24 11:57:01;;;;;;;339.35;327.05;;;18.90;99.90;;;;;;5032394;28;20624;-79
2022/05/24 11:59:48;;;;;;;399.58;384.80;;;19.40;99.90;;;;;;5064662;28;20266;-78
2022/05/24 12:02:26;;;;;;;468.80;450.40;;;19.60;99.90;;;;;;5071469;28;20290;-78
2022/05/24 12:08:26;;;;;;;543.28;520.22;;;19.50;99.90;;;;;;5044770;28;20573;-79
2022/05/24 12:11:17;;;;;;;494.48;474.17;;;19.10;99.90;;;;;;5033633;28;20709;-77
2022/05/24 12:13:46;;;;;;;489.48;469.77;;;18.90;99.90;;;;;;5033227;28;20178;-77
2022/05/24 12:16:36;;;;;;;508.85;488.10;;;18.80;99.90;;;;;;5042103;28;20198;-77
2022/05/24 12:19:04;;;;;;;493.92;474.02;;;18.80;99.90;;;;;;5033308;28;20186;-77
2022/05/24 12:24:41;;;;;;;514.47;493.17;;;18.60;99.90;;;;;;5062679;28;20694;-79
2022/05/24 12:27:13;;;;;;;500.50;479.83;;;18.70;99.90;;;;;;5042141;28;20214;-77
2022/05/24 12:29:44;;;;;;;501.15;480.73;;;18.70;99.90;;;;;;5040265;28;20266;-78
2022/05/24 12:32:10;;;;;;;496.65;476.38;;;18.70;99.90;;;;;;5038286;28;20236;-76
2022/05/24 12:34:36;;;;;;;506.60;486.00;;;18.80;99.90;;;;;;5044283;28;20577;-75
2022/05/24 12:37:15;;;;;;;515.10;493.67;;;18.70;99.90;;;;;;5048898;28;20651;-77
2022/05/24 12:39:41;;;;;;;448.95;431.30;;;18.60;99.90;;;;;;5084594;28;20192;-72
2022/05/24 12:42:13;;;;;;;469.52;450.85;;;18.60;99.90;;;;;;5034579;28;20179;-77
2022/05/24 12:44:47;;;;;;;489.58;469.95;;;18.50;99.90;;;;;;5036383;28;20233;-68
2022/05/24 12:47:16;;;;;;;509.98;489.05;;;18.50;99.90;;;;;;5047943;28;20224;-68
2022/05/24 12:49:48;;;;;;;508.25;487.08;;;18.40;99.90;;;;;;5045299;28;20178;-67
2022/05/24 12:52:22;;;;;;;518.60;496.13;;;18.40;99.90;;;;;;5051035;28;20179;-69
2022/05/24 12:54:53;;;;;;;533.22;510.40;;;18.40;99.90;;;;;;5049589;28;20708;-68
2022/05/24 12:57:32;;;;;;;514.70;493.27;;;18.40;99.90;;;;;;5043041;28;20581;-68
2022/05/24 13:00:09;;;;;;;489.05;468.95;;;18.40;99.90;;;;;;5031047;28;20199;-69
2022/05/24 13:02:40;;;;;;;475.63;455.98;;;18.40;99.90;;;;;;5032746;28;20229;-68
2022/05/24 13:05:08;;;;;;;428.45;411.75;;;18.40;99.90;;;;;;5046375;28;20181;-69
2022/05/24 13:07:50;;;;;;;480.25;460.75;;;18.20;99.90;;;;;;5035341;28;20179;-78
2022/05/24 13:10:26;;;;;;;431.75;415.23;;;18.00;99.90;;;;;;5032391;28;20214;-76
2022/05/24 13:12:57;;;;;;;420.50;404.63;;;18.20;99.90;;;;;;5064448;28;20185;-76
2022/05/24 13:15:37;;;;;;;454.98;437.23;;;18.60;99.90;;;;;;5032820;28;20183;-75
2022/05/24 13:18:13;;;;;;;534.00;511.60;;;18.80;99.90;;;;;;5032787;28;20714;-75
2022/05/24 13:20:48;;;;;;;578.20;552.65;;;19.10;99.90;;;;;;5044130;28;20202;-75
2022/05/24 13:23:26;;;;;;;522.95;500.67;;;18.80;99.90;;;;;;5032842;28;20202;-75